Time;durP1;ratioP1;P1;durP2;ratioP2;P2;SDS_P1;SDS_P2;PMS_P1;PMS_P2;Temp;Humidity;BMP_temperature;BMP_pressure;BME280_temperature;BME280_humidity;BME280_pressure;Samples;Min_cycle;Max_cycle;Signal;HPM_P1;HPM_P2
2021/07/02 00:00:33;;;;;;;25.35;17.52;;;22.30;96.20;;;;;;4248630;27;20548;-74
2021/07/02 00:02:37;;;;;;;23.55;18.55;;;22.30;96.10;;;;;;4248016;27;20061;-74
2021/07/02 00:04:40;;;;;;;18.33;16.13;;;22.30;96.10;;;;;;4248194;27;20505;-74
2021/07/02 00:06:44;;;;;;;21.65;18.83;;;22.30;96.10;;;;;;4248307;27;20058;-76
2021/07/02 00:08:47;;;;;;;19.88;17.45;;;22.30;96.00;;;;;;4248197;27;20067;-74
2021/07/02 00:10:50;;;;;;;23.83;18.38;;;22.30;96.10;;;;;;4248136;27;20047;-74
2021/07/02 00:12:54;;;;;;;23.30;18.48;;;22.20;96.20;;;;;;4248600;27;20395;-73
2021/07/02 00:14:57;;;;;;;22.15;18.88;;;22.20;96.20;;;;;;4249555;27;20057;-74
2021/07/02 00:17:00;;;;;;;24.77;20.23;;;22.20;96.30;;;;;;4252692;27;20047;-74
2021/07/02 00:19:04;;;;;;;22.40;19.77;;;22.10;96.30;;;;;;4251887;27;20055;-74
2021/07/02 00:21:07;;;;;;;21.05;17.85;;;22.10;96.50;;;;;;4250280;27;20057;-74
2021/07/02 00:23:10;;;;;;;26.45;19.23;;;22.10;96.50;;;;;;4246826;27;20062;-74
2021/07/02 00:25:13;;;;;;;23.45;18.30;;;22.00;96.50;;;;;;4247118;27;20059;-75
2021/07/02 00:27:16;;;;;;;23.52;20.48;;;22.00;96.50;;;;;;4247149;27;20062;-74
2021/07/02 00:29:20;;;;;;;26.45;19.60;;;22.00;96.70;;;;;;4247011;27;20052;-75
2021/07/02 00:31:24;;;;;;;28.05;19.45;;;22.00;96.70;;;;;;4235718;27;20057;-74
2021/07/02 00:33:27;;;;;;;24.27;20.50;;;21.90;96.60;;;;;;4247035;27;20059;-75
2021/07/02 00:35:30;;;;;;;27.73;20.08;;;21.80;97.10;;;;;;4247122;27;20396;-74
2021/07/02 00:37:33;;;;;;;25.70;19.95;;;21.80;97.10;;;;;;4247022;27;20055;-73
2021/07/02 00:39:36;;;;;;;26.90;21.95;;;21.90;96.90;;;;;;4246724;27;20415;-74
2021/07/02 00:41:39;;;;;;;28.83;21.10;;;21.80;97.90;;;;;;4247538;27;20039;-75
2021/07/02 00:43:49;;;;;;;31.05;22.67;;;21.80;97.80;;;;;;4248320;27;20055;-74
2021/07/02 00:45:53;;;;;;;29.27;21.92;;;21.60;98.90;;;;;;4247211;27;20057;-74
2021/07/02 00:47:56;;;;;;;30.00;23.02;;;21.50;99.00;;;;;;4246995;27;20077;-73
2021/07/02 00:49:59;;;;;;;35.33;23.13;;;21.50;99.60;;;;;;4246774;27;20427;-73
2021/07/02 00:52:04;;;;;;;30.35;23.00;;;21.40;99.70;;;;;;4238809;27;20613;-74
2021/07/02 00:54:10;;;;;;;34.08;23.67;;;21.40;99.30;;;;;;4246746;27;20054;-73
2021/07/02 00:56:17;;;;;;;25.17;19.10;;;21.40;99.90;;;;;;4246800;27;20107;-73
2021/07/02 00:58:22;;;;;;;30.17;21.42;;;21.50;98.90;;;;;;4247229;27;20065;-75
2021/07/02 01:00:25;;;;;;;31.30;22.17;;;21.60;98.60;;;;;;4247056;27;20049;-74
2021/07/02 01:02:29;;;;;;;32.47;20.75;;;21.60;98.80;;;;;;4247699;27;20047;-72
2021/07/02 01:04:32;;;;;;;25.23;19.10;;;21.70;98.30;;;;;;4247195;27;20077;-73
2021/07/02 01:06:36;;;;;;;28.63;20.90;;;21.70;98.10;;;;;;4250210;27;20446;-74
2021/07/02 01:08:40;;;;;;;29.58;21.83;;;21.60;98.40;;;;;;4252894;27;20133;-74
2021/07/02 01:10:43;;;;;;;25.35;21.13;;;21.60;98.50;;;;;;4255052;27;20057;-74
2021/07/02 01:12:46;;;;;;;25.15;20.27;;;21.60;98.20;;;;;;4245728;27;20051;-74
2021/07/02 01:14:50;;;;;;;28.48;20.95;;;21.60;98.10;;;;;;4253836;27;20047;-74
2021/07/02 01:16:55;;;;;;;29.58;20.65;;;21.60;98.20;;;;;;4253608;27;20039;-73
2021/07/02 01:19:00;;;;;;;29.25;22.40;;;21.60;98.20;;;;;;4250070;27;20051;-73
2021/07/02 01:21:04;;;;;;;31.35;20.95;;;21.50;98.80;;;;;;4247871;27;20051;-73
2021/07/02 01:23:07;;;;;;;31.40;22.00;;;21.50;98.20;;;;;;4235940;27;20048;-73
2021/07/02 01:25:11;;;;;;;33.03;23.77;;;21.50;98.20;;;;;;4248108;27;20059;-74
2021/07/02 01:27:15;;;;;;;29.67;23.37;;;21.50;98.20;;;;;;4249149;27;20402;-74
2021/07/02 01:29:20;;;;;;;28.80;22.55;;;21.60;98.10;;;;;;4250425;27;20047;-74
2021/07/02 01:31:23;;;;;;;26.85;21.65;;;21.50;98.40;;;;;;4246752;27;20467;-74
2021/07/02 01:33:26;;;;;;;32.97;24.92;;;21.50;98.60;;;;;;4246520;27;20057;-74
2021/07/02 01:35:29;;;;;;;33.88;24.10;;;21.50;99.00;;;;;;4246688;27;20437;-73
2021/07/02 01:37:33;;;;;;;34.58;24.85;;;21.40;98.60;;;;;;4246269;27;20476;-74
2021/07/02 01:39:37;;;;;;;30.90;22.05;;;21.40;98.70;;;;;;4228166;28;20048;-74
2021/07/02 01:41:40;;;;;;;26.05;21.38;;;21.30;98.60;;;;;;4246023;27;20059;-75
2021/07/02 01:43:44;;;;;;;28.27;21.95;;;21.30;98.50;;;;;;4245881;27;20057;-74
2021/07/02 01:45:47;;;;;;;32.58;24.17;;;21.30;98.80;;;;;;4228799;28;20508;-75
2021/07/02 01:47:50;;;;;;;27.98;22.23;;;21.30;99.00;;;;;;4242129;27;20514;-74
2021/07/02 01:49:53;;;;;;;31.00;21.80;;;21.30;98.70;;;;;;4230104;28;20057;-73
2021/07/02 01:51:56;;;;;;;29.33;21.65;;;21.30;98.70;;;;;;4247940;27;20054;-72
2021/07/02 01:54:00;;;;;;;33.33;25.52;;;21.30;98.40;;;;;;4246642;27;20055;-73
2021/07/02 01:56:04;;;;;;;33.10;23.23;;;21.30;99.30;;;;;;4246014;27;20072;-74
2021/07/02 01:58:07;;;;;;;25.63;20.92;;;21.30;99.00;;;;;;4245632;27;20073;-74
2021/07/02 02:00:11;;;;;;;25.92;20.77;;;21.20;99.00;;;;;;4246082;27;20050;-75
2021/07/02 02:02:14;;;;;;;29.87;21.00;;;21.20;98.70;;;;;;4245843;27;20054;-74
2021/07/02 02:04:19;;;;;;;28.83;23.33;;;21.20;98.60;;;;;;4245914;27;20742;-72
2021/07/02 02:06:22;;;;;;;28.67;23.52;;;21.10;99.90;;;;;;4245822;27;20047;-73
2021/07/02 02:08:25;;;;;;;28.42;24.20;;;21.00;99.80;;;;;;4245548;27;20055;-73
2021/07/02 02:10:29;;;;;;;33.22;26.20;;;21.00;99.90;;;;;;4245781;27;20062;-74
2021/07/02 02:12:32;;;;;;;33.70;28.40;;;20.90;99.90;;;;;;4227483;28;20060;-74
2021/07/02 02:14:36;;;;;;;36.30;27.05;;;20.90;99.90;;;;;;4245635;27;20051;-73
2021/07/02 02:16:41;;;;;;;40.22;28.95;;;20.90;99.90;;;;;;4245801;27;20054;-74
2021/07/02 02:18:44;;;;;;;50.58;32.47;;;20.80;99.90;;;;;;4245499;27;20055;-73
2021/07/02 02:20:47;;;;;;;53.92;29.48;;;20.70;99.90;;;;;;4245650;27;20483;-75
2021/07/02 02:22:50;;;;;;;46.63;29.13;;;20.60;99.90;;;;;;4245731;27;20059;-74
2021/07/02 02:24:53;;;;;;;45.03;27.50;;;20.70;99.90;;;;;;4245894;27;20062;-74
2021/07/02 02:26:58;;;;;;;46.22;28.10;;;20.80;99.90;;;;;;4246476;27;20055;-73
2021/07/02 02:29:02;;;;;;;42.63;27.98;;;20.80;99.90;;;;;;4246250;27;20061;-73
2021/07/02 02:31:05;;;;;;;47.40;32.40;;;20.90;99.90;;;;;;4246448;27;20059;-72
2021/07/02 02:33:11;;;;;;;42.13;30.73;;;20.70;99.90;;;;;;4245647;27;20051;-73
2021/07/02 02:35:14;;;;;;;44.30;29.65;;;20.70;99.90;;;;;;4247811;27;20058;-73
2021/07/02 02:37:17;;;;;;;45.97;33.20;;;20.70;99.90;;;;;;4249030;27;20406;-73
2021/07/02 02:39:20;;;;;;;40.92;28.50;;;20.70;99.90;;;;;;4247851;27;20544;-74
2021/07/02 02:41:24;;;;;;;39.17;28.60;;;20.70;99.90;;;;;;4246835;27;20051;-73
2021/07/02 02:43:28;;;;;;;39.35;28.20;;;20.80;99.90;;;;;;4245978;27;20457;-73
2021/07/02 02:45:31;;;;;;;40.80;30.00;;;20.80;99.90;;;;;;4247515;27;20394;-74
2021/07/02 02:47:34;;;;;;;43.42;30.45;;;20.90;99.90;;;;;;4249803;27;20071;-74
2021/07/02 02:49:37;;;;;;;49.28;37.22;;;20.80;99.80;;;;;;4249247;27;20055;-73
2021/07/02 02:51:41;;;;;;;53.53;39.25;;;20.80;99.90;;;;;;4249620;27;20062;-74
2021/07/02 02:53:44;;;;;;;46.72;34.90;;;20.80;99.90;;;;;;4249235;27;20054;-71
2021/07/02 02:55:47;;;;;;;46.78;31.33;;;20.80;99.90;;;;;;4245562;27;20053;-76
2021/07/02 02:57:50;;;;;;;50.42;33.95;;;20.80;99.90;;;;;;4249572;27;20048;-73
2021/07/02 02:59:54;;;;;;;49.97;32.97;;;20.80;99.90;;;;;;4250082;27;20400;-72
2021/07/02 03:01:57;;;;;;;59.22;37.30;;;20.80;99.90;;;;;;4252591;27;20054;-72
2021/07/02 03:04:00;;;;;;;51.60;39.00;;;20.80;99.90;;;;;;4254855;27;20059;-74
2021/07/02 03:06:03;;;;;;;65.55;41.00;;;20.80;99.90;;;;;;4250541;27;20115;-73
2021/07/02 03:08:07;;;;;;;66.45;46.28;;;20.80;99.90;;;;;;4248891;27;20403;-72
2021/07/02 03:10:10;;;;;;;60.47;41.15;;;20.80;99.90;;;;;;4248518;27;20104;-73
2021/07/02 03:12:13;;;;;;;59.90;39.47;;;20.80;99.90;;;;;;4249795;27;20057;-74
2021/07/02 03:14:17;;;;;;;64.18;41.75;;;20.90;99.70;;;;;;4249014;27;20488;-74
2021/07/02 03:16:21;;;;;;;51.20;38.25;;;20.80;99.90;;;;;;4248314;27;20065;-74
2021/07/02 03:18:24;;;;;;;56.72;37.75;;;20.80;99.90;;;;;;4249206;27;20058;-73
2021/07/02 03:20:27;;;;;;;51.67;33.80;;;20.80;99.90;;;;;;4248406;27;20468;-73
2021/07/02 03:22:30;;;;;;;49.70;34.15;;;20.80;99.70;;;;;;4248650;27;20057;-74
2021/07/02 03:24:33;;;;;;;53.72;35.95;;;20.80;99.70;;;;;;4248727;27;20055;-74
2021/07/02 03:26:37;;;;;;;50.83;36.00;;;20.90;99.70;;;;;;4248414;27;20051;-75
2021/07/02 03:28:40;;;;;;;51.25;34.25;;;20.80;99.70;;;;;;4249046;27;20048;-73
2021/07/02 03:30:43;;;;;;;51.35;36.05;;;20.80;99.80;;;;;;4250458;27;20051;-75
2021/07/02 03:32:47;;;;;;;47.03;36.75;;;20.80;99.90;;;;;;4251647;27;20384;-74
2021/07/02 03:34:51;;;;;;;50.78;36.72;;;20.70;99.90;;;;;;4249002;27;20067;-74
2021/07/02 03:36:54;;;;;;;49.97;33.25;;;20.70;99.90;;;;;;4248290;27;20415;-73
2021/07/02 03:38:57;;;;;;;50.33;34.17;;;20.70;99.90;;;;;;4231786;28;20392;-74
2021/07/02 03:41:00;;;;;;;48.63;34.72;;;20.70;99.90;;;;;;4239393;27;20054;-74
2021/07/02 03:43:03;;;;;;;62.08;41.78;;;20.70;99.80;;;;;;4248406;27;20047;-75
2021/07/02 03:45:07;;;;;;;52.78;36.17;;;20.70;99.90;;;;;;4246716;27;20052;-74
2021/07/02 03:47:10;;;;;;;50.15;37.10;;;20.60;99.90;;;;;;4249412;27;20058;-73
2021/07/02 03:49:15;;;;;;;51.47;35.45;;;20.60;99.90;;;;;;4254071;27;20539;-73
2021/07/02 03:51:18;;;;;;;45.88;33.83;;;20.50;99.90;;;;;;4252028;27;20122;-72
2021/07/02 03:53:21;;;;;;;45.25;33.58;;;20.60;99.90;;;;;;4251427;27;20458;-73
2021/07/02 03:55:24;;;;;;;48.53;34.42;;;20.60;99.90;;;;;;4247680;27;20084;-72
2021/07/02 03:57:27;;;;;;;58.03;41.53;;;20.50;99.90;;;;;;4246545;27;20057;-73
2021/07/02 03:59:30;;;;;;;58.95;39.65;;;20.50;99.90;;;;;;4247631;27;20487;-72
2021/07/02 04:01:33;;;;;;;60.17;40.25;;;20.40;99.90;;;;;;4247547;27;20533;-74
2021/07/02 04:03:36;;;;;;;55.72;36.90;;;20.40;99.90;;;;;;4247800;27;20051;-74
2021/07/02 04:05:44;;;;;;;63.33;43.00;;;20.40;99.90;;;;;;4247753;27;20055;-73
2021/07/02 04:07:47;;;;;;;56.78;34.85;;;20.20;99.90;;;;;;4247195;27;20067;-74
2021/07/02 04:09:50;;;;;;;55.25;36.28;;;20.30;99.90;;;;;;4248077;27;20523;-73
2021/07/02 04:11:53;;;;;;;54.33;33.45;;;20.30;99.90;;;;;;4248629;27;20074;-73
2021/07/02 04:13:56;;;;;;;45.33;32.05;;;20.30;99.90;;;;;;4248308;27;20643;-73
2021/07/02 04:15:59;;;;;;;44.22;29.67;;;20.40;99.90;;;;;;4247650;27;20590;-73
2021/07/02 04:18:02;;;;;;;46.50;31.08;;;20.40;99.90;;;;;;4247063;27;20088;-73
2021/07/02 04:20:06;;;;;;;48.28;34.72;;;20.40;99.90;;;;;;4247259;27;20066;-73
2021/07/02 04:22:10;;;;;;;54.08;31.92;;;20.50;99.90;;;;;;4228943;27;20537;-73
2021/07/02 04:24:14;;;;;;;44.25;30.85;;;20.40;99.90;;;;;;4229934;28;20052;-73
2021/07/02 04:26:17;;;;;;;45.70;30.83;;;20.40;99.90;;;;;;4247560;27;20058;-73
2021/07/02 04:28:20;;;;;;;50.78;34.03;;;20.40;99.90;;;;;;4249664;27;20656;-74
2021/07/02 04:30:23;;;;;;;48.33;32.88;;;20.30;99.90;;;;;;4250425;27;20051;-74
2021/07/02 04:32:26;;;;;;;55.67;33.88;;;20.10;99.90;;;;;;4250016;27;20638;-73
2021/07/02 04:34:29;;;;;;;50.05;33.65;;;20.10;99.90;;;;;;4220089;28;20051;-75
2021/07/02 04:36:34;;;;;;;48.15;33.13;;;20.00;99.90;;;;;;4248927;27;20494;-74
2021/07/02 04:38:39;;;;;;;51.05;30.13;;;20.10;99.90;;;;;;4249362;27;20047;-73
2021/07/02 04:40:42;;;;;;;47.17;29.73;;;20.20;99.90;;;;;;4250047;27;20057;-73
2021/07/02 04:42:45;;;;;;;56.67;30.13;;;20.30;99.90;;;;;;4251077;27;20050;-74
2021/07/02 04:44:48;;;;;;;43.22;28.10;;;20.30;99.90;;;;;;4251854;27;20059;-73
2021/07/02 04:46:51;;;;;;;57.10;31.55;;;20.30;99.90;;;;;;4249879;27;20058;-73
2021/07/02 04:48:54;;;;;;;51.63;27.63;;;20.10;99.90;;;;;;4249905;27;20047;-72
2021/07/02 04:50:58;;;;;;;43.42;27.63;;;20.00;99.90;;;;;;4244641;27;20408;-74
2021/07/02 04:53:01;;;;;;;43.58;25.70;;;20.10;99.90;;;;;;4237608;27;20047;-71
2021/07/02 04:55:06;;;;;;;47.75;26.00;;;20.00;99.90;;;;;;4251277;27;20422;-73
2021/07/02 04:57:09;;;;;;;47.85;24.02;;;19.90;99.90;;;;;;4252776;27;20051;-74
2021/07/02 04:59:12;;;;;;;40.95;24.10;;;19.90;99.90;;;;;;4254035;27;20065;-74
2021/07/02 05:01:17;;;;;;;43.60;24.25;;;19.80;99.90;;;;;;4257448;27;20100;-75
2021/07/02 05:03:20;;;;;;;46.63;23.30;;;19.80;99.90;;;;;;4255256;27;20051;-74
2021/07/02 05:05:23;;;;;;;54.92;24.77;;;20.00;99.90;;;;;;4250819;27;20069;-74
2021/07/02 05:07:26;;;;;;;47.42;23.05;;;19.90;99.90;;;;;;4249615;27;20492;-75
2021/07/02 05:09:29;;;;;;;47.08;23.13;;;19.90;99.90;;;;;;4247158;27;20491;-73
2021/07/02 05:11:34;;;;;;;44.63;24.50;;;20.10;99.90;;;;;;4231642;28;20056;-72
2021/07/02 05:13:37;;;;;;;;;;;20.20;99.90;;;;;;4249861;27;20480;-75
2021/07/02 05:15:40;;;;;;;45.50;22.25;;;20.20;99.90;;;;;;4250051;27;19920;-74
2021/07/02 05:17:43;;;;;;;41.25;24.33;;;20.40;99.90;;;;;;4247244;27;20057;-73
2021/07/02 05:19:46;;;;;;;58.28;26.20;;;20.50;99.90;;;;;;4248062;27;20055;-73
2021/07/02 05:21:49;;;;;;;47.65;25.48;;;20.50;99.90;;;;;;4247084;27;20055;-73
2021/07/02 05:23:53;;;;;;;60.03;24.77;;;20.30;99.90;;;;;;4246948;27;20061;-75
2021/07/02 05:25:56;;;;;;;44.75;23.33;;;20.40;99.90;;;;;;4246915;27;20055;-75
2021/07/02 05:28:00;;;;;;;47.13;24.50;;;20.60;99.90;;;;;;4246657;27;20055;-73
2021/07/02 05:30:04;;;;;;;41.25;23.88;;;20.50;99.90;;;;;;4246403;27;20047;-72
2021/07/02 05:32:08;;;;;;;42.25;25.00;;;20.60;99.90;;;;;;4246615;27;20053;-75
2021/07/02 05:34:11;;;;;;;47.45;28.05;;;20.50;99.90;;;;;;4246407;27;20066;-73
2021/07/02 05:36:14;;;;;;;42.58;27.23;;;20.50;99.90;;;;;;4246629;27;20081;-74
2021/07/02 05:38:17;;;;;;;44.20;26.98;;;20.60;99.90;;;;;;4246269;27;20059;-74
2021/07/02 05:40:21;;;;;;;38.22;27.33;;;20.70;99.90;;;;;;4245798;27;20061;-72
2021/07/02 05:42:24;;;;;;;55.05;27.90;;;20.80;99.90;;;;;;4246747;27;20059;-73
2021/07/02 05:44:29;;;;;;;50.55;26.73;;;20.80;99.90;;;;;;4247241;27;20104;-73
2021/07/02 05:46:32;;;;;;;41.97;25.55;;;20.70;99.90;;;;;;4243475;27;20050;-73
2021/07/02 05:48:35;;;;;;;43.92;26.25;;;20.90;99.90;;;;;;4247158;27;20055;-75
2021/07/02 05:50:38;;;;;;;53.15;28.48;;;21.00;99.90;;;;;;4246027;27;20057;-75
2021/07/02 05:52:41;;;;;;;52.13;27.85;;;21.00;99.90;;;;;;4234908;27;20055;-76
2021/07/02 05:54:48;;;;;;;41.75;26.30;;;21.00;99.90;;;;;;4231940;27;20051;-74
2021/07/02 05:56:51;;;;;;;49.47;27.80;;;20.90;99.90;;;;;;4232297;27;20143;-74
2021/07/02 05:58:54;;;;;;;44.85;23.98;;;20.80;99.90;;;;;;4246527;27;20062;-73
2021/07/02 06:00:59;;;;;;;38.70;24.20;;;20.70;99.90;;;;;;4246418;27;20053;-74
2021/07/02 06:03:02;;;;;;;39.78;23.65;;;20.60;99.90;;;;;;4246407;27;20061;-74
2021/07/02 06:05:06;;;;;;;41.65;24.48;;;20.80;99.90;;;;;;4246267;27;20406;-74
2021/07/02 06:07:09;;;;;;;33.30;21.65;;;20.90;99.90;;;;;;4242720;27;20047;-74
2021/07/02 06:09:12;;;;;;;36.42;22.25;;;20.90;99.90;;;;;;4246314;27;20055;-77
2021/07/02 06:11:15;;;;;;;43.63;24.42;;;21.10;99.90;;;;;;4245656;27;20488;-73
2021/07/02 06:13:18;;;;;;;36.05;22.15;;;21.20;99.90;;;;;;4245667;27;20069;-74
2021/07/02 06:15:21;;;;;;;34.30;21.88;;;21.30;99.90;;;;;;4245909;27;20062;-74
2021/07/02 06:17:26;;;;;;;46.97;24.77;;;21.40;99.90;;;;;;4246045;27;20051;-73
2021/07/02 06:19:29;;;;;;;33.13;21.95;;;21.40;99.90;;;;;;4246578;27;20096;-75
2021/07/02 06:21:32;;;;;;;35.03;24.30;;;21.50;99.90;;;;;;4246583;27;20057;-74
2021/07/02 06:23:35;;;;;;;37.40;23.13;;;21.50;99.90;;;;;;4245682;27;20057;-75
2021/07/02 06:25:38;;;;;;;37.38;24.88;;;21.60;99.90;;;;;;4245938;27;20047;-73
2021/07/02 06:27:41;;;;;;;37.35;23.55;;;21.50;99.90;;;;;;4245105;27;20067;-77
2021/07/02 06:29:51;;;;;;;39.30;24.30;;;21.50;99.90;;;;;;4246281;27;20123;-75
2021/07/02 06:31:54;;;;;;;37.88;22.15;;;21.50;99.90;;;;;;4245788;27;20055;-74
2021/07/02 06:33:58;;;;;;;48.25;24.70;;;21.70;99.90;;;;;;4245917;27;20599;-73
2021/07/02 06:36:02;;;;;;;44.95;23.88;;;21.70;99.90;;;;;;4245565;27;20047;-74
2021/07/02 06:38:05;;;;;;;41.72;22.92;;;21.50;99.90;;;;;;4245676;27;20411;-72
2021/07/02 06:40:09;;;;;;;42.10;26.60;;;21.60;99.90;;;;;;4245809;27;20047;-74
2021/07/02 06:42:12;;;;;;;47.53;25.17;;;21.60;99.90;;;;;;4245559;27;20063;-75
2021/07/02 06:44:15;;;;;;;46.97;24.08;;;21.50;99.90;;;;;;4246834;27;20047;-76
2021/07/02 06:46:18;;;;;;;43.20;24.23;;;21.60;99.90;;;;;;4246088;27;20146;-74
2021/07/02 06:48:21;;;;;;;40.95;23.65;;;21.70;99.90;;;;;;4245442;27;20046;-74
2021/07/02 06:50:27;;;;;;;31.58;22.65;;;21.90;99.90;;;;;;4245787;27;20115;-73
2021/07/02 06:52:30;;;;;;;35.92;23.80;;;22.00;99.90;;;;;;4227848;28;20047;-73
2021/07/02 06:54:34;;;;;;;37.55;23.67;;;22.10;99.90;;;;;;4245604;27;20070;-72
2021/07/02 06:56:59;;;;;;;49.15;24.25;;;22.20;99.90;;;;;;4245859;27;20051;-74
2021/07/02 06:59:01;;;;;;;47.90;25.60;;;22.00;99.90;;;;;;4245808;27;20430;-73
2021/07/02 07:01:03;;;;;;;45.85;23.42;;;22.10;99.90;;;;;;4245603;27;20057;-74
2021/07/02 07:03:07;;;;;;;45.03;26.23;;;22.10;99.90;;;;;;4245188;27;20063;-73
2021/07/02 07:05:11;;;;;;;55.85;24.20;;;22.20;99.90;;;;;;4245812;27;20267;-75
2021/07/02 07:07:15;;;;;;;46.38;24.55;;;22.20;99.90;;;;;;4245659;27;20055;-74
2021/07/02 07:09:18;;;;;;;57.80;24.85;;;22.30;99.90;;;;;;4245668;27;20051;-75
2021/07/02 07:11:21;;;;;;;48.35;24.60;;;22.40;99.90;;;;;;4245365;27;20504;-73
2021/07/02 07:13:24;;;;;;;45.45;23.73;;;22.50;99.90;;;;;;4245373;27;20059;-72
2021/07/02 07:15:27;;;;;;;46.25;23.45;;;22.70;99.90;;;;;;4245587;27;20047;-73
2021/07/02 07:17:31;;;;;;;39.47;23.02;;;22.80;99.90;;;;;;4245631;27;20059;-74
2021/07/02 07:19:35;;;;;;;45.15;24.52;;;22.80;99.90;;;;;;4242013;27;20052;-75
2021/07/02 07:21:38;;;;;;;38.08;23.95;;;22.70;99.70;;;;;;4246115;27;20051;-74
2021/07/02 07:23:43;;;;;;;39.55;25.02;;;22.70;99.40;;;;;;4250495;27;20058;-74
2021/07/02 07:25:48;;;;;;;43.70;25.08;;;22.80;99.80;;;;;;4257401;27;20069;-74
2021/07/02 07:27:51;;;;;;;33.38;24.20;;;22.80;99.40;;;;;;4257949;27;20051;-74
2021/07/02 07:29:54;;;;;;;39.08;23.08;;;22.90;99.50;;;;;;4255082;27;20114;-75
2021/07/02 07:31:57;;;;;;;35.75;25.00;;;22.90;99.50;;;;;;4250595;27;20043;-76
2021/07/02 07:34:01;;;;;;;41.55;24.33;;;23.00;99.20;;;;;;4256030;27;20475;-75
2021/07/02 07:36:05;;;;;;;42.50;24.73;;;23.20;99.40;;;;;;4255219;27;20055;-75
2021/07/02 07:38:08;;;;;;;42.60;24.77;;;23.30;98.90;;;;;;4252116;27;20475;-75
2021/07/02 07:40:14;;;;;;;40.40;24.23;;;23.50;98.90;;;;;;4243724;27;20059;-73
2021/07/02 07:42:17;;;;;;;41.63;25.23;;;23.50;98.70;;;;;;4231987;28;20059;-74
2021/07/02 07:44:20;;;;;;;45.83;24.92;;;23.50;98.40;;;;;;4244749;27;20051;-74
2021/07/02 07:46:27;;;;;;;42.60;21.85;;;23.60;98.20;;;;;;4246250;27;20051;-74
2021/07/02 07:48:30;;;;;;;33.22;21.80;;;23.70;98.20;;;;;;4245543;27;20055;-74
2021/07/02 07:50:42;;;;;;;39.50;22.05;;;23.60;98.50;;;;;;4244701;27;20419;-74
2021/07/02 07:52:54;;;;;;;38.00;22.42;;;23.60;98.10;;;;;;4248499;27;20063;-75
2021/07/02 07:54:57;;;;;;;36.58;24.30;;;23.80;98.60;;;;;;4247219;27;20049;-73
2021/07/02 07:57:02;;;;;;;41.88;24.02;;;23.80;97.60;;;;;;4247681;27;20043;-74
2021/07/02 07:59:05;;;;;;;40.95;20.80;;;23.90;98.00;;;;;;4247923;27;20047;-72
2021/07/02 08:01:09;;;;;;;51.22;24.08;;;24.20;97.80;;;;;;4247889;27;20065;-72
2021/07/02 08:03:12;;;;;;;39.22;22.90;;;24.20;97.10;;;;;;4247712;27;20062;-72
2021/07/02 08:05:15;;;;;;;38.70;24.70;;;24.30;97.40;;;;;;4247751;27;20039;-72
2021/07/02 08:07:18;;;;;;;38.20;24.13;;;24.20;96.50;;;;;;4247240;27;20062;-72
2021/07/02 08:09:22;;;;;;;36.47;23.33;;;24.40;96.70;;;;;;4247543;27;20126;-72
2021/07/02 08:11:25;;;;;;;38.45;22.13;;;24.60;97.20;;;;;;4247559;27;20047;-72
2021/07/02 08:13:30;;;;;;;43.38;24.02;;;24.70;96.80;;;;;;4247598;27;20668;-72
2021/07/02 08:15:33;;;;;;;35.55;23.33;;;24.70;96.00;;;;;;4247519;27;20082;-73
2021/07/02 08:17:36;;;;;;;34.25;23.13;;;24.70;95.80;;;;;;4247342;27;20081;-72
2021/07/02 08:19:39;;;;;;;36.50;24.55;;;24.80;96.30;;;;;;4247300;27;20051;-72
2021/07/02 08:21:42;;;;;;;30.70;21.95;;;24.70;95.30;;;;;;4247503;27;20491;-72
2021/07/02 08:23:45;;;;;;;35.35;22.23;;;24.90;95.80;;;;;;4248308;27;20051;-74
2021/07/02 08:25:48;;;;;;;33.05;23.73;;;25.00;95.10;;;;;;4229166;28;20043;-72
2021/07/02 08:30:16;;;;;;;41.03;24.33;;;25.20;95.90;;;;;;4247290;27;20484;-72
2021/07/02 08:32:19;;;;;;;38.17;22.17;;;25.20;94.70;;;;;;4247349;27;20043;-72
2021/07/02 08:34:22;;;;;;;46.78;23.45;;;25.20;94.70;;;;;;4247343;27;20541;-72
2021/07/02 08:36:25;;;;;;;47.60;27.27;;;25.20;94.80;;;;;;4247432;27;20051;-72
2021/07/02 08:38:28;;;;;;;33.85;22.23;;;25.00;94.50;;;;;;4247796;27;20059;-71
2021/07/02 08:40:31;;;;;;;34.20;21.90;;;25.00;95.00;;;;;;4248045;27;20054;-72
2021/07/02 08:42:35;;;;;;;43.15;21.33;;;25.20;94.90;;;;;;4248519;27;20055;-71
2021/07/02 08:44:38;;;;;;;37.92;20.80;;;25.30;94.80;;;;;;4249093;27;20066;-72
2021/07/02 08:46:45;;;;;;;38.20;21.15;;;25.50;95.30;;;;;;4248912;27;20044;-71
2021/07/02 08:49:03;;;;;;;34.65;21.15;;;25.50;94.70;;;;;;4252676;27;20074;-72
2021/07/02 08:51:06;;;;;;;32.95;19.70;;;25.40;94.30;;;;;;4252394;27;20059;-72
2021/07/02 08:53:09;;;;;;;32.03;20.15;;;25.50;94.40;;;;;;4250540;27;20053;-71
2021/07/02 08:55:13;;;;;;;30.73;19.88;;;25.50;93.80;;;;;;4247754;27;20688;-72
2021/07/02 08:57:16;;;;;;;26.10;19.10;;;25.40;93.60;;;;;;4246773;27;20051;-71
2021/07/02 08:59:19;;;;;;;26.35;19.30;;;25.50;92.70;;;;;;4247348;27;20051;-71
2021/07/02 09:01:39;;;;;;;36.25;19.52;;;25.60;93.10;;;;;;4246731;27;20065;-73
2021/07/02 09:03:44;;;;;;;29.38;18.95;;;25.50;93.30;;;;;;4237786;27;20417;-72
2021/07/02 09:05:47;;;;;;;29.30;17.75;;;25.50;92.60;;;;;;4246810;27;20057;-72
2021/07/02 09:07:50;;;;;;;23.67;17.42;;;25.60;92.70;;;;;;4246990;27;20058;-72
2021/07/02 09:09:55;;;;;;;33.42;19.25;;;25.60;93.20;;;;;;4247693;27;20055;-72
2021/07/02 09:12:07;;;;;;;30.08;17.98;;;25.80;92.90;;;;;;4247506;27;20061;-70
2021/07/02 09:14:22;;;;;;;31.35;18.35;;;26.00;92.20;;;;;;4248066;27;20203;-72
2021/07/02 09:16:34;;;;;;;27.95;18.77;;;26.20;92.30;;;;;;4246732;27;20062;-75
2021/07/02 09:18:38;;;;;;;27.45;18.25;;;26.30;92.00;;;;;;4244074;27;20055;-72
2021/07/02 09:20:43;;;;;;;29.35;17.08;;;26.20;90.80;;;;;;4246730;27;20057;-72
2021/07/02 09:22:51;;;;;;;35.38;16.63;;;26.00;92.10;;;;;;4246952;27;20057;-72
2021/07/02 09:24:54;;;;;;;33.35;17.75;;;26.00;91.60;;;;;;4246644;27;20047;-72
2021/07/02 09:26:57;;;;;;;39.70;16.50;;;26.10;90.60;;;;;;4248549;27;20158;-72
2021/07/02 09:29:14;;;;;;;26.00;16.33;;;26.00;91.00;;;;;;4246613;27;20570;-73
2021/07/02 09:31:33;;;;;;;28.02;16.20;;;26.00;91.40;;;;;;4246689;27;20460;-72
2021/07/02 09:33:37;;;;;;;21.77;15.20;;;26.20;91.90;;;;;;4246373;27;20051;-73
2021/07/02 09:35:51;;;;;;;26.50;15.88;;;26.40;92.00;;;;;;4246604;27;20142;-74
2021/07/02 09:37:58;;;;;;;26.15;15.88;;;26.60;91.90;;;;;;4247105;27;20039;-72
2021/07/02 09:40:13;;;;;;;23.33;15.68;;;26.60;90.90;;;;;;4246818;27;20052;-73
2021/07/02 09:42:23;;;;;;;24.58;13.77;;;26.50;90.20;;;;;;4247994;27;20537;-73
2021/07/02 09:44:26;;;;;;;20.40;14.77;;;26.60;90.80;;;;;;4243587;27;20057;-73
2021/07/02 09:46:31;;;;;;;21.23;15.10;;;26.70;90.10;;;;;;4247575;27;20055;-72
2021/07/02 09:48:40;;;;;;;21.85;13.18;;;26.70;89.40;;;;;;4245020;27;20051;-73
2021/07/02 09:50:46;;;;;;;16.88;10.85;;;26.90;91.10;;;;;;4249225;27;20043;-72
2021/07/02 09:52:51;;;;;;;18.63;10.90;;;27.10;90.30;;;;;;4250220;27;20055;-72
2021/07/02 09:55:02;;;;;;;19.30;10.82;;;27.00;87.40;;;;;;4249905;27;20399;-73
2021/07/02 09:57:19;;;;;;;15.10;11.45;;;27.00;89.40;;;;;;4250847;27;20051;-72
2021/07/02 09:59:22;;;;;;;16.73;10.40;;;26.90;86.90;;;;;;4254169;27;20059;-75
2021/07/02 10:01:27;;;;;;;14.10;9.82;;;26.80;85.70;;;;;;4262639;27;20130;-74
2021/07/02 10:03:31;;;;;;;14.30;10.13;;;26.80;87.50;;;;;;4263264;27;20077;-73
2021/07/02 10:05:50;;;;;;;18.67;11.07;;;26.80;83.50;;;;;;4261982;27;20047;-73
2021/07/02 10:08:01;;;;;;;14.88;9.93;;;26.50;84.20;;;;;;4262153;27;20051;-72
2021/07/02 10:10:05;;;;;;;17.25;10.52;;;26.60;83.70;;;;;;4262220;27;20123;-72
2021/07/02 10:12:08;;;;;;;20.20;11.10;;;26.60;84.80;;;;;;4258068;27;20142;-73
2021/07/02 10:14:12;;;;;;;14.60;10.10;;;26.70;86.70;;;;;;4247915;27;20051;-73
2021/07/02 10:16:15;;;;;;;18.25;10.18;;;26.80;85.50;;;;;;4246826;27;20051;-73
2021/07/02 10:18:20;;;;;;;21.40;9.48;;;26.60;83.80;;;;;;4246874;27;20055;-73
2021/07/02 10:20:25;;;;;;;13.20;8.90;;;26.80;82.80;;;;;;4246623;27;20051;-73
2021/07/02 10:22:29;;;;;;;;;;;26.90;83.50;;;;;;4247567;27;21190;-72
2021/07/02 10:24:33;;;;;;;14.02;10.23;;;27.00;81.70;;;;;;4246784;27;20295;-72
2021/07/02 10:26:37;;;;;;;13.90;10.25;;;26.80;82.60;;;;;;4246639;27;20062;-75
2021/07/02 10:28:43;;;;;;;16.10;10.63;;;27.00;83.50;;;;;;4246846;27;20773;-74
2021/07/02 10:30:46;;;;;;;18.27;10.10;;;27.00;83.60;;;;;;4245091;27;20056;-72
2021/07/02 10:32:52;;;;;;;14.10;9.73;;;27.10;81.40;;;;;;4246316;27;20051;-72